^^
Your Local Weather - Clay, NY Station Historical Data
Daily Summary for November 23, 2017 Units:  English    Metric   Both
« Previous Day
Next Day »
Daily Weekly Monthly Yearly Custom
  High: Low: Average:
Temperature: 37.2 °F 25.5 °F 31.9 °F
Dew Point: 26.6 °F 19.9 °F 23.3 °F
Humidity: 83% 60% 71%
Wind Speed: 4.0mph 0.0mph 1.6mph
Wind Gust: 7.0mph - -
Wind- - SW
Pressure: 30.14 in 29.93 in -
Precipitation: 0.00 in    
Historical Graphs
 
 
Tabular Data for November 23, 2017
Time Temperature Dew Point Pressure Wind Wind Speed Wind Gust Humidity Rainfall Rate (Hourly) solar
00:00 29.2 °F 21.0 °F 30.13 in NNW 2.0 mph 3.0 mph 71% 0.00 in 0 W/m2
00:05 29.2 °F 21.0 °F 30.13 in NW 3.0 mph 3.0 mph 71% 0.00 in 0 W/m2
00:12 29.2 °F 21.0 °F 30.13 in WNW 2.0 mph 4.0 mph 71% 0.00 in 0 W/m2
00:18 29.2 °F 20.6 °F 30.13 in NW 2.0 mph 5.0 mph 70% 0.00 in 0 W/m2
00:30 29.2 °F 20.6 °F 30.13 in WNW 2.0 mph 2.0 mph 70% 0.00 in 0 W/m2
00:48 29.3 °F 21.1 °F 30.12 in WNW 3.0 mph 4.0 mph 71% 0.00 in 0 W/m2
00:54 29.2 °F 21.0 °F 30.12 in WNW 2.0 mph 4.0 mph 71% 0.00 in 0 W/m2
01:00 29.2 °F 21.3 °F 30.12 in WNW 1.0 mph 1.0 mph 72% 0.00 in 0 W/m2
01:06 29.2 °F 21.3 °F 30.12 in WNW 2.0 mph 2.0 mph 72% 0.00 in 0 W/m2
01:12 29.1 °F 21.2 °F 30.12 in North 3.0 mph 3.0 mph 72% 0.00 in 0 W/m2
01:24 28.8 °F 21.2 °F 30.12 in NW 3.0 mph 6.0 mph 73% 0.00 in 0 W/m2
01:30 28.5 °F 20.6 °F 30.12 in NW 3.0 mph 4.0 mph 72% 0.00 in 0 W/m2
01:36 28.3 °F 20.4 °F 30.12 in NW 2.0 mph 4.0 mph 72% 0.00 in 0 W/m2
01:42 28.0 °F 20.5 °F 30.12 in NW 2.0 mph 2.0 mph 73% 0.00 in 0 W/m2
01:48 27.8 °F 20.6 °F 30.12 in NW 1.0 mph 4.0 mph 74% 0.00 in 0 W/m2
01:54 27.6 °F 20.4 °F 30.12 in NW 1.0 mph 2.0 mph 74% 0.00 in 0 W/m2
02:00 27.6 °F 20.4 °F 30.12 in NW 1.0 mph 1.0 mph 74% 0.00 in 0 W/m2
02:05 27.5 °F 20.3 °F 30.13 in NW 2.0 mph 5.0 mph 74% 0.00 in 0 W/m2
02:18 27.3 °F 20.4 °F 30.12 in NW 1.0 mph 2.0 mph 75% 0.00 in 0 W/m2
02:24 27.1 °F 20.2 °F 30.12 in NW 1.0 mph 2.0 mph 75% 0.00 in 0 W/m2
02:42 26.8 °F 20.2 °F 30.12 in NW 1.0 mph 1.0 mph 76% 0.00 in 0 W/m2
02:48 26.7 °F 20.1 °F 30.12 in Calm   1.0 mph 76% 0.00 in 0 W/m2
02:54 26.7 °F 20.1 °F 30.13 in NW 1.0 mph 1.0 mph 76% 0.00 in 0 W/m2
03:00 26.7 °F 20.1 °F 30.13 in Calm     76% 0.00 in 0 W/m2
03:06 26.6 °F 20.1 °F 30.13 in Calm   3.0 mph 76% 0.00 in 0 W/m2
03:12 26.6 °F 20.1 °F 30.13 in NW 1.0 mph 1.0 mph 76% 0.00 in 0 W/m2
03:24 26.6 °F 20.1 °F 30.13 in NW 1.0 mph 1.0 mph 76% 0.00 in 0 W/m2
03:30 26.6 °F 20.1 °F 30.13 in NW 1.0 mph 1.0 mph 76% 0.00 in 0 W/m2
03:42 26.4 °F 19.9 °F 30.13 in Calm     76% 0.00 in 0 W/m2
03:48 26.4 °F 19.9 °F 30.13 in Calm     76% 0.00 in 0 W/m2
03:54 26.3 °F 20.1 °F 30.14 in Calm   1.0 mph 77% 0.00 in 0 W/m2
03:59 26.3 °F 20.1 °F 30.14 in Calm     77% 0.00 in 0 W/m2
04:06 26.3 °F 20.1 °F 30.14 in Calm     77% 0.00 in 0 W/m2
04:12 26.2 °F 20.0 °F 30.14 in Calm     77% 0.00 in 0 W/m2
04:18 26.1 °F 19.9 °F 30.13 in Calm     77% 0.00 in 0 W/m2
04:24 26.0 °F 20.1 °F 30.13 in Calm     78% 0.00 in 0 W/m2
04:42 25.9 °F 20.6 °F 30.13 in Calm     80% 0.00 in 0 W/m2
04:54 25.7 °F 20.4 °F 30.13 in Calm     80% 0.00 in 0 W/m2
05:00 25.6 °F 20.3 °F 30.13 in Calm     80% 0.00 in 0 W/m2
05:05 25.6 °F 20.6 °F 30.13 in Calm     81% 0.00 in 0 W/m2
05:12 25.6 °F 20.6 °F 30.13 in Calm     81% 0.00 in 0 W/m2
05:18 25.5 °F 20.5 °F 30.13 in Calm     81% 0.00 in 0 W/m2
05:24 25.5 °F 20.5 °F 30.13 in Calm     81% 0.00 in 0 W/m2
05:30 25.6 °F 20.6 °F 30.12 in Calm     81% 0.00 in 0 W/m2
05:36 25.6 °F 20.6 °F 30.12 in Calm     81% 0.00 in 0 W/m2
05:42 25.5 °F 20.5 °F 30.12 in Calm     81% 0.00 in 0 W/m2
06:00 25.5 °F 20.8 °F 30.12 in Calm     82% 0.00 in 0 W/m2
06:06 25.6 °F 20.9 °F 30.12 in Calm     82% 0.00 in 0 W/m2
06:18 25.8 °F 21.1 °F 30.12 in Calm     82% 0.00 in 0 W/m2
06:24 25.9 °F 21.2 °F 30.12 in Calm     82% 0.00 in 0 W/m2
06:30 25.9 °F 21.2 °F 30.12 in Calm     82% 0.00 in 0 W/m2
06:36 26.0 °F 21.5 °F 30.11 in Calm     83% 0.00 in 0 W/m2
06:42 26.1 °F 21.6 °F 30.11 in Calm     83% 0.00 in 0 W/m2
06:48 26.2 °F 21.7 °F 30.12 in Calm     83% 0.00 in 0 W/m2
06:54 26.2 °F 21.5 °F 30.12 in Calm     82% 0.00 in 0 W/m2
07:00 26.2 °F 21.5 °F 30.11 in Calm     82% 0.00 in 5 W/m2
07:06 26.3 °F 21.6 °F 30.11 in Calm     82% 0.00 in 7 W/m2
07:30 27.0 °F 22.5 °F 30.11 in Calm     83% 0.00 in 16 W/m2
07:36 27.1 °F 22.6 °F 30.11 in Calm     83% 0.00 in 16 W/m2
07:42 27.2 °F 22.7 °F 30.11 in Calm     83% 0.00 in 23 W/m2
07:54 27.5 °F 23.0 °F 30.12 in Calm     83% 0.00 in 28 W/m2
08:00 27.7 °F 22.9 °F 30.12 in Calm     82% 0.00 in 39 W/m2
08:06 27.9 °F 23.1 °F 30.12 in Calm     82% 0.00 in 32 W/m2
08:12 28.1 °F 23.3 °F 30.12 in Calm     82% 0.00 in 42 W/m2
08:24 28.4 °F 23.6 °F 30.12 in Calm     82% 0.00 in 37 W/m2
08:30 28.6 °F 23.5 °F 30.11 in Calm     81% 0.00 in 35 W/m2
08:36 28.7 °F 23.6 °F 30.11 in Calm     81% 0.00 in 63 W/m2
08:42 28.9 °F 23.8 °F 30.11 in Calm     81% 0.00 in 83 W/m2
08:48 29.1 °F 24.0 °F 30.12 in SW 1.0 mph 3.0 mph 81% 0.00 in 60 W/m2
08:53 29.2 °F 23.5 °F 30.12 in WSW 2.0 mph 3.0 mph 79% 0.00 in 63 W/m2
09:06 29.4 °F 23.7 °F 30.12 in SW 1.0 mph 2.0 mph 79% 0.00 in 83 W/m2
09:12 29.5 °F 23.8 °F 30.12 in Calm   1.0 mph 79% 0.00 in 79 W/m2
09:18 29.5 °F 23.8 °F 30.12 in SW 1.0 mph 2.0 mph 79% 0.00 in 60 W/m2
09:30 29.6 °F 23.9 °F 30.11 in SW 1.0 mph 1.0 mph 79% 0.00 in 58 W/m2
09:42 29.7 °F 24.0 °F 30.11 in SSW 1.0 mph 4.0 mph 79% 0.00 in 60 W/m2
09:54 29.9 °F 24.2 °F 30.11 in SW 1.0 mph 4.0 mph 79% 0.00 in 63 W/m2
09:59 30.0 °F 24.3 °F 30.11 in SW 1.0 mph 3.0 mph 79% 0.00 in 77 W/m2
10:06 30.1 °F 24.4 °F 30.11 in SSW 2.0 mph 4.0 mph 79% 0.00 in 83 W/m2
10:12 30.3 °F 24.3 °F 30.10 in SSW 1.0 mph 1.0 mph 78% 0.00 in 91 W/m2
10:18 30.4 °F 24.4 °F 30.10 in South 2.0 mph 2.0 mph 78% 0.00 in 100 W/m2
10:36 31.1 °F 24.4 °F 30.10 in SSW 2.0 mph 3.0 mph 76% 0.00 in 130 W/m2
10:48 31.8 °F 23.8 °F 30.09 in SSW 2.0 mph 5.0 mph 72% 0.00 in 220 W/m2
11:06 33.1 °F 24.0 °F 30.08 in South 4.0 mph 7.0 mph 69% 0.00 in 290 W/m2
11:12 33.9 °F 24.1 °F 30.08 in SSE 3.0 mph 4.0 mph 67% 0.00 in 292 W/m2
11:20 33.7 °F 23.2 °F 30.07 in SW 3.0 mph 3.0 mph 65% 0.00 in 181 W/m2
11:26 33.7 °F 23.5 °F 30.07 in South 3.0 mph 3.0 mph 66% 0.00 in 160 W/m2
11:38 34.0 °F 23.5 °F 30.06 in WSW 2.0 mph 4.0 mph 65% 0.00 in 281 W/m2
11:44 34.5 °F 23.6 °F 30.05 in SW 2.0 mph 3.0 mph 64% 0.00 in 237 W/m2
11:50 34.8 °F 23.5 °F 30.04 in SW 2.0 mph 2.0 mph 63% 0.00 in 229 W/m2
11:56 34.7 °F 23.0 °F 30.04 in SW 1.0 mph 2.0 mph 62% 0.00 in 211 W/m2
12:02 35.0 °F 23.7 °F 30.03 in SW 1.0 mph 2.0 mph 63% 0.00 in 236 W/m2
12:32 34.9 °F 22.8 °F 30.02 in SSW 3.0 mph 5.0 mph 61% 0.00 in 190 W/m2
12:38 35.0 °F 22.5 °F 30.01 in SSE 2.0 mph 5.0 mph 60% 0.00 in 144 W/m2
12:44 35.1 °F 22.6 °F 30.01 in SW 3.0 mph 5.0 mph 60% 0.00 in 127 W/m2
12:50 35.3 °F 22.8 °F 30.01 in SW 2.0 mph 2.0 mph 60% 0.00 in 114 W/m2
12:55 35.2 °F 22.7 °F 30.01 in WSW 2.0 mph 6.0 mph 60% 0.00 in 114 W/m2
13:08 35.2 °F 22.7 °F 30.01 in SW 2.0 mph 4.0 mph 60% 0.00 in 90 W/m2
13:14 35.2 °F 22.7 °F 30.01 in WSW 2.0 mph 3.0 mph 60% 0.00 in 83 W/m2
13:20 35.2 °F 23.1 °F 30.01 in West 2.0 mph 2.0 mph 61% 0.00 in 81 W/m2
13:26 35.2 °F 23.1 °F 30.01 in WSW 2.0 mph 3.0 mph 61% 0.00 in 77 W/m2
13:32 35.3 °F 23.2 °F 30.01 in WSW 2.0 mph 2.0 mph 61% 0.00 in 72 W/m2
13:38 35.3 °F 23.2 °F 30.00 in SW 3.0 mph 3.0 mph 61% 0.00 in 65 W/m2
13:44 35.2 °F 23.1 °F 30.00 in WSW 2.0 mph 3.0 mph 61% 0.00 in 70 W/m2
13:50 35.1 °F 23.0 °F 30.00 in SW 3.0 mph 3.0 mph 61% 0.00 in 100 W/m2
13:56 35.2 °F 23.1 °F 30.00 in WSW 3.0 mph 7.0 mph 61% 0.00 in 102 W/m2
14:02 35.3 °F 23.2 °F 29.99 in SW 3.0 mph 5.0 mph 61% 0.00 in 100 W/m2
14:14 35.3 °F 23.2 °F 29.99 in WSW 3.0 mph 4.0 mph 61% 0.00 in 86 W/m2
14:20 35.3 °F 23.2 °F 29.99 in SW 2.0 mph 2.0 mph 61% 0.00 in 56 W/m2
14:26 35.2 °F 22.7 °F 29.98 in WSW 3.0 mph 4.0 mph 60% 0.00 in 63 W/m2
14:32 35.1 °F 22.6 °F 29.98 in WSW 4.0 mph 4.0 mph 60% 0.00 in 69 W/m2
14:44 35.2 °F 23.1 °F 29.98 in WSW 3.0 mph 3.0 mph 61% 0.00 in 79 W/m2
14:50 35.3 °F 23.6 °F 29.98 in SW 2.0 mph 2.0 mph 62% 0.00 in 70 W/m2
14:56 35.4 °F 24.0 °F 29.98 in SW 1.0 mph 4.0 mph 63% 0.00 in 72 W/m2
15:02 35.4 °F 24.0 °F 29.97 in SW 2.0 mph 6.0 mph 63% 0.00 in 56 W/m2
15:08 35.3 °F 24.0 °F 29.97 in South 3.0 mph 6.0 mph 63% 0.00 in 58 W/m2
15:14 35.3 °F 24.0 °F 29.97 in SSE 3.0 mph 6.0 mph 63% 0.00 in 51 W/m2
15:26 35.2 °F 23.9 °F 29.97 in South 3.0 mph 5.0 mph 63% 0.00 in 44 W/m2
15:38 35.1 °F 23.8 °F 29.97 in SW 2.0 mph 3.0 mph 63% 0.00 in 30 W/m2
15:44 35.0 °F 23.7 °F 29.97 in SW 2.0 mph 5.0 mph 63% 0.00 in 25 W/m2
15:50 35.0 °F 23.7 °F 29.97 in SSW 3.0 mph 3.0 mph 63% 0.00 in 21 W/m2
16:02 35.0 °F 24.0 °F 29.97 in South 4.0 mph 4.0 mph 64% 0.00 in 14 W/m2
16:08 35.0 °F 24.0 °F 29.97 in SSW 4.0 mph 4.0 mph 64% 0.00 in 11 W/m2
16:14 34.9 °F 24.3 °F 29.97 in SSW 2.0 mph 3.0 mph 65% 0.00 in 7 W/m2
16:20 34.9 °F 24.3 °F 29.97 in WSW 3.0 mph 3.0 mph 65% 0.00 in 5 W/m2
16:32 34.9 °F 24.3 °F 29.97 in SSW 3.0 mph 4.0 mph 65% 0.00 in 0 W/m2
16:38 34.9 °F 24.7 °F 29.97 in SW 3.0 mph 5.0 mph 66% 0.00 in 0 W/m2
16:44 34.9 °F 25.0 °F 29.96 in SW 3.0 mph 4.0 mph 67% 0.00 in 0 W/m2
16:50 34.8 °F 25.0 °F 29.96 in WSW 2.0 mph 2.0 mph 67% 0.00 in 0 W/m2
16:56 34.8 °F 25.3 °F 29.96 in SW 2.0 mph 6.0 mph 68% 0.00 in 0 W/m2
17:02 34.8 °F 25.3 °F 29.96 in SW 2.0 mph 3.0 mph 68% 0.00 in 0 W/m2
17:22 34.8 °F 25.7 °F 29.95 in SSW 1.0 mph 1.0 mph 69% 0.00 in 0 W/m2
17:28 34.8 °F 25.7 °F 29.95 in South 1.0 mph 2.0 mph 69% 0.00 in 0 W/m2
17:34 34.8 °F 25.7 °F 29.95 in SW 2.0 mph 7.0 mph 69% 0.00 in 0 W/m2
17:40 34.8 °F 25.7 °F 29.95 in SSW 2.0 mph 3.0 mph 69% 0.00 in 0 W/m2
17:46 34.9 °F 25.8 °F 29.96 in SSW 1.0 mph 3.0 mph 69% 0.00 in 0 W/m2
17:52 34.9 °F 25.8 °F 29.96 in SW 1.0 mph 3.0 mph 69% 0.00 in 0 W/m2
18:04 34.9 °F 26.1 °F 29.96 in SSW 1.0 mph 2.0 mph 70% 0.00 in 0 W/m2
18:10 34.8 °F 26.0 °F 29.96 in SSW 1.0 mph 1.0 mph 70% 0.00 in 0 W/m2
18:16 34.8 °F 26.0 °F 29.96 in SSW 1.0 mph 2.0 mph 70% 0.00 in 0 W/m2
18:22 34.8 °F 26.4 °F 29.96 in SSW 1.0 mph 1.0 mph 71% 0.00 in 0 W/m2
18:28 34.8 °F 26.4 °F 29.96 in SSW 1.0 mph 4.0 mph 71% 0.00 in 0 W/m2
18:34 34.8 °F 26.4 °F 29.96 in SSW 1.0 mph 3.0 mph 71% 0.00 in 0 W/m2
18:40 34.8 °F 26.4 °F 29.96 in South 2.0 mph 2.0 mph 71% 0.00 in 0 W/m2
18:52 34.9 °F 26.4 °F 29.96 in South 1.0 mph 2.0 mph 71% 0.00 in 0 W/m2
18:58 34.9 °F 26.4 °F 29.96 in South 1.0 mph 4.0 mph 71% 0.00 in 0 W/m2
19:10 34.9 °F 26.4 °F 29.96 in South 1.0 mph 1.0 mph 71% 0.00 in 0 W/m2
19:16 35.0 °F 26.5 °F 29.96 in South 1.0 mph 2.0 mph 71% 0.00 in 0 W/m2
19:22 35.0 °F 26.2 °F 29.96 in SSW 2.0 mph 3.0 mph 70% 0.00 in 0 W/m2
19:40 35.2 °F 26.0 °F 29.95 in South 3.0 mph 3.0 mph 69% 0.00 in 0 W/m2
19:45 35.3 °F 26.1 °F 29.95 in SSW 3.0 mph 6.0 mph 69% 0.00 in 0 W/m2
20:06 35.5 °F 26.3 °F 29.95 in SSE 3.0 mph 5.0 mph 69% 0.00 in 0 W/m2
20:12 35.5 °F 26.3 °F 29.94 in SSW 3.0 mph 3.0 mph 69% 0.00 in 0 W/m2
20:18 35.6 °F 26.4 °F 29.95 in SSW 3.0 mph 3.0 mph 69% 0.00 in 0 W/m2
20:24 35.8 °F 26.6 °F 29.95 in SW 3.0 mph 4.0 mph 69% 0.00 in 0 W/m2
20:42 36.1 °F 26.6 °F 29.95 in SW 2.0 mph 2.0 mph 68% 0.00 in 0 W/m2
20:48 36.2 °F 26.6 °F 29.95 in SSW 2.0 mph 5.0 mph 68% 0.00 in 0 W/m2
21:06 36.5 °F 26.2 °F 29.95 in South 2.0 mph 5.0 mph 66% 0.00 in 0 W/m2
21:10 36.6 °F 25.9 °F 29.95 in SW 3.0 mph 3.0 mph 65% 0.00 in 0 W/m2
21:15 36.7 °F 26.0 °F 29.95 in South 3.0 mph 7.0 mph 65% 0.00 in 0 W/m2
21:28 36.8 °F 25.8 °F 29.94 in SSW 3.0 mph 4.0 mph 64% 0.00 in 0 W/m2
21:34 36.9 °F 25.9 °F 29.94 in SW 3.0 mph 4.0 mph 64% 0.00 in 0 W/m2
21:39 36.9 °F 25.9 °F 29.94 in SW 3.0 mph 3.0 mph 64% 0.00 in 0 W/m2
21:46 36.9 °F 25.9 °F 29.93 in SW 3.0 mph 4.0 mph 64% 0.00 in 0 W/m2
21:58 37.0 °F 25.9 °F 29.93 in SW 2.0 mph 3.0 mph 64% 0.00 in 0 W/m2
22:04 37.0 °F 25.6 °F 29.93 in SSW 2.0 mph 6.0 mph 63% 0.00 in 0 W/m2
22:16 37.0 °F 25.9 °F 29.94 in SW 2.0 mph 5.0 mph 64% 0.00 in 0 W/m2
22:22 37.0 °F 25.9 °F 29.93 in West 2.0 mph 4.0 mph 64% 0.00 in 0 W/m2
22:28 37.0 °F 25.6 °F 29.93 in SW 1.0 mph 4.0 mph 63% 0.00 in 0 W/m2
22:38 37.0 °F 25.6 °F 29.93 in West 2.0 mph 3.0 mph 63% 0.00 in 0 W/m2
22:44 37.0 °F 25.6 °F 29.93 in WSW 2.0 mph 3.0 mph 63% 0.00 in 0 W/m2
22:52 37.0 °F 25.6 °F 29.93 in WSW 2.0 mph 4.0 mph 63% 0.00 in 0 W/m2
22:58 37.0 °F 25.6 °F 29.93 in SW 2.0 mph 4.0 mph 63% 0.00 in 0 W/m2
23:04 37.0 °F 25.6 °F 29.93 in SW 2.0 mph 4.0 mph 63% 0.00 in 0 W/m2
23:10 37.0 °F 25.6 °F 29.94 in SW 2.0 mph 5.0 mph 63% 0.00 in 0 W/m2
23:24 37.1 °F 25.3 °F 29.94 in SW 2.0 mph 3.0 mph 62% 0.00 in 0 W/m2
23:29 37.2 °F 25.4 °F 29.94 in SW 3.0 mph 3.0 mph 62% 0.00 in 0 W/m2
23:36 37.1 °F 25.3 °F 29.94 in WSW 2.0 mph 3.0 mph 62% 0.00 in 0 W/m2
23:42 37.1 °F 25.3 °F 29.95 in SW 3.0 mph 3.0 mph 62% 0.00 in 0 W/m2
23:48 37.1 °F 25.3 °F 29.94 in SW 2.0 mph 3.0 mph 62% 0.00 in 0 W/m2
23:54 37.1 °F 25.3 °F 29.94 in SW 2.0 mph 3.0 mph 62% 0.00 in 0 W/m2
23:59 37.1 °F 25.3 °F 29.94 in SW 2.0 mph 2.0 mph 62% 0.00 in 0 W/m2
Country Meadow, Clay, NY, USA
Compliments of Weather Underground - 2 mb